sensor_id;sensor_type;location;lat;lon;timestamp;P1;durP1;ratioP1;P2;durP2;ratioP2
20832;SDS011;56075;51.264;7.150;2024-02-26T00:02:28;4.50;;;1.40;;
20832;SDS011;56075;51.264;7.150;2024-02-26T00:04:59;2.57;;;1.27;;
20832;SDS011;56075;51.264;7.150;2024-02-26T00:07:30;2.77;;;1.40;;
20832;SDS011;56075;51.264;7.150;2024-02-26T00:10:01;2.67;;;1.40;;
20832;SDS011;56075;51.264;7.150;2024-02-26T00:12:32;2.13;;;0.97;;
20832;SDS011;56075;51.264;7.150;2024-02-26T00:15:04;2.53;;;1.07;;
20832;SDS011;56075;51.264;7.150;2024-02-26T00:17:38;1.90;;;1.00;;
20832;SDS011;56075;51.264;7.150;2024-02-26T00:20:11;2.10;;;1.10;;
20832;SDS011;56075;51.264;7.150;2024-02-26T00:22:42;2.97;;;1.30;;
20832;SDS011;56075;51.264;7.150;2024-02-26T00:25:13;1.93;;;0.90;;
20832;SDS011;56075;51.264;7.150;2024-02-26T00:27:45;1.90;;;1.00;;
20832;SDS011;56075;51.264;7.150;2024-02-26T00:30:16;2.47;;;1.10;;
20832;SDS011;56075;51.264;7.150;2024-02-26T00:32:47;1.80;;;0.90;;
20832;SDS011;56075;51.264;7.150;2024-02-26T00:35:18;2.03;;;1.10;;
20832;SDS011;56075;51.264;7.150;2024-02-26T00:37:51;3.07;;;1.07;;
20832;SDS011;56075;51.264;7.150;2024-02-26T00:40:22;2.77;;;1.30;;
20832;SDS011;56075;51.264;7.150;2024-02-26T00:42:53;1.73;;;0.90;;
20832;SDS011;56075;51.264;7.150;2024-02-26T00:45:24;3.03;;;1.17;;
20832;SDS011;56075;51.264;7.150;2024-02-26T00:47:56;3.47;;;1.13;;
20832;SDS011;56075;51.264;7.150;2024-02-26T00:50:27;1.47;;;0.97;;
20832;SDS011;56075;51.264;7.150;2024-02-26T00:52:58;2.40;;;1.00;;
20832;SDS011;56075;51.264;7.150;2024-02-26T00:55:30;2.57;;;1.23;;
20832;SDS011;56075;51.264;7.150;2024-02-26T00:58:01;3.80;;;1.33;;
20832;SDS011;56075;51.264;7.150;2024-02-26T01:00:32;2.57;;;1.17;;
20832;SDS011;56075;51.264;7.150;2024-02-26T01:03:04;4.60;;;1.37;;
20832;SDS011;56075;51.264;7.150;2024-02-26T01:05:35;2.93;;;1.30;;
20832;SDS011;56075;51.264;7.150;2024-02-26T01:08:06;2.20;;;1.17;;
20832;SDS011;56075;51.264;7.150;2024-02-26T01:10:38;2.13;;;1.20;;
20832;SDS011;56075;51.264;7.150;2024-02-26T01:13:09;2.63;;;1.17;;
20832;SDS011;56075;51.264;7.150;2024-02-26T01:15:40;3.33;;;1.43;;
20832;SDS011;56075;51.264;7.150;2024-02-26T01:18:11;2.67;;;1.30;;
20832;SDS011;56075;51.264;7.150;2024-02-26T01:20:42;2.57;;;1.47;;
20832;SDS011;56075;51.264;7.150;2024-02-26T01:23:14;4.17;;;1.70;;
20832;SDS011;56075;51.264;7.150;2024-02-26T01:25:45;3.50;;;1.33;;
20832;SDS011;56075;51.264;7.150;2024-02-26T01:28:16;3.63;;;1.30;;
20832;SDS011;56075;51.264;7.150;2024-02-26T01:30:48;2.27;;;1.13;;
20832;SDS011;56075;51.264;7.150;2024-02-26T01:33:19;4.07;;;1.37;;
20832;SDS011;56075;51.264;7.150;2024-02-26T01:35:50;3.83;;;1.30;;
20832;SDS011;56075;51.264;7.150;2024-02-26T01:38:21;1.97;;;1.03;;
20832;SDS011;56075;51.264;7.150;2024-02-26T01:40:53;3.10;;;1.20;;
20832;SDS011;56075;51.264;7.150;2024-02-26T01:43:24;4.40;;;1.70;;
20832;SDS011;56075;51.264;7.150;2024-02-26T01:45:55;1.57;;;1.10;;
20832;SDS011;56075;51.264;7.150;2024-02-26T01:48:26;2.03;;;0.87;;
20832;SDS011;56075;51.264;7.150;2024-02-26T01:50:58;1.93;;;1.00;;
20832;SDS011;56075;51.264;7.150;2024-02-26T01:53:29;2.77;;;1.20;;
20832;SDS011;56075;51.264;7.150;2024-02-26T01:56:01;1.57;;;0.93;;
20832;SDS011;56075;51.264;7.150;2024-02-26T01:58:34;3.30;;;1.20;;
20832;SDS011;56075;51.264;7.150;2024-02-26T02:01:06;3.03;;;1.10;;
20832;SDS011;56075;51.264;7.150;2024-02-26T02:03:38;2.60;;;1.10;;
20832;SDS011;56075;51.264;7.150;2024-02-26T02:06:09;2.80;;;1.30;;
20832;SDS011;56075;51.264;7.150;2024-02-26T02:08:40;1.83;;;1.13;;
20832;SDS011;56075;51.264;7.150;2024-02-26T02:11:12;1.37;;;1.10;;
20832;SDS011;56075;51.264;7.150;2024-02-26T02:13:45;4.10;;;1.30;;
20832;SDS011;56075;51.264;7.150;2024-02-26T02:16:16;3.30;;;1.30;;
20832;SDS011;56075;51.264;7.150;2024-02-26T02:18:47;3.03;;;1.57;;
20832;SDS011;56075;51.264;7.150;2024-02-26T02:21:18;3.47;;;1.30;;
20832;SDS011;56075;51.264;7.150;2024-02-26T02:23:50;2.53;;;1.27;;
20832;SDS011;56075;51.264;7.150;2024-02-26T02:26:21;4.13;;;1.30;;
20832;SDS011;56075;51.264;7.150;2024-02-26T02:28:52;3.27;;;1.40;;
20832;SDS011;56075;51.264;7.150;2024-02-26T02:31:23;2.30;;;1.43;;
20832;SDS011;56075;51.264;7.150;2024-02-26T02:33:55;2.80;;;1.70;;
20832;SDS011;56075;51.264;7.150;2024-02-26T02:36:27;3.47;;;1.80;;
20832;SDS011;56075;51.264;7.150;2024-02-26T02:38:58;3.10;;;1.50;;
20832;SDS011;56075;51.264;7.150;2024-02-26T02:41:29;4.50;;;1.50;;
20832;SDS011;56075;51.264;7.150;2024-02-26T02:44:00;3.13;;;1.50;;
20832;SDS011;56075;51.264;7.150;2024-02-26T02:46:33;2.93;;;1.43;;
20832;SDS011;56075;51.264;7.150;2024-02-26T02:49:09;2.80;;;1.43;;
20832;SDS011;56075;51.264;7.150;2024-02-26T02:51:41;2.60;;;1.37;;
20832;SDS011;56075;51.264;7.150;2024-02-26T02:54:12;4.80;;;1.37;;
20832;SDS011;56075;51.264;7.150;2024-02-26T02:56:43;4.87;;;1.40;;
20832;SDS011;56075;51.264;7.150;2024-02-26T02:59:15;3.97;;;1.47;;
20832;SDS011;56075;51.264;7.150;2024-02-26T03:01:46;2.97;;;1.50;;
20832;SDS011;56075;51.264;7.150;2024-02-26T03:04:17;3.40;;;1.40;;
20832;SDS011;56075;51.264;7.150;2024-02-26T03:06:49;3.43;;;1.40;;
20832;SDS011;56075;51.264;7.150;2024-02-26T03:09:20;2.43;;;1.30;;
20832;SDS011;56075;51.264;7.150;2024-02-26T03:11:52;2.63;;;1.10;;
20832;SDS011;56075;51.264;7.150;2024-02-26T03:14:23;1.93;;;1.10;;
20832;SDS011;56075;51.264;7.150;2024-02-26T03:16:55;4.80;;;1.10;;
20832;SDS011;56075;51.264;7.150;2024-02-26T03:19:27;1.83;;;1.10;;
20832;SDS011;56075;51.264;7.150;2024-02-26T03:21:58;3.13;;;1.37;;
20832;SDS011;56075;51.264;7.150;2024-02-26T03:24:30;2.30;;;1.17;;
20832;SDS011;56075;51.264;7.150;2024-02-26T03:27:01;4.00;;;1.20;;
20832;SDS011;56075;51.264;7.150;2024-02-26T03:29:32;2.57;;;1.17;;
20832;SDS011;56075;51.264;7.150;2024-02-26T03:32:04;1.97;;;1.10;;
20832;SDS011;56075;51.264;7.150;2024-02-26T03:34:35;3.80;;;1.70;;
20832;SDS011;56075;51.264;7.150;2024-02-26T03:37:09;3.07;;;1.60;;
20832;SDS011;56075;51.264;7.150;2024-02-26T03:39:41;2.97;;;1.20;;
20832;SDS011;56075;51.264;7.150;2024-02-26T03:42:12;2.70;;;1.30;;
20832;SDS011;56075;51.264;7.150;2024-02-26T03:44:44;4.47;;;1.70;;
20832;SDS011;56075;51.264;7.150;2024-02-26T03:47:15;2.50;;;1.40;;
20832;SDS011;56075;51.264;7.150;2024-02-26T03:49:47;3.97;;;1.47;;
20832;SDS011;56075;51.264;7.150;2024-02-26T03:52:18;3.57;;;1.40;;
20832;SDS011;56075;51.264;7.150;2024-02-26T03:54:49;2.37;;;1.40;;
20832;SDS011;56075;51.264;7.150;2024-02-26T03:57:20;2.43;;;1.50;;
20832;SDS011;56075;51.264;7.150;2024-02-26T03:59:52;4.40;;;1.50;;
20832;SDS011;56075;51.264;7.150;2024-02-26T04:02:24;2.97;;;1.50;;
20832;SDS011;56075;51.264;7.150;2024-02-26T04:04:56;2.57;;;1.30;;
20832;SDS011;56075;51.264;7.150;2024-02-26T04:07:27;1.73;;;1.20;;
20832;SDS011;56075;51.264;7.150;2024-02-26T04:09:58;2.90;;;1.23;;
20832;SDS011;56075;51.264;7.150;2024-02-26T04:12:29;2.73;;;1.23;;
20832;SDS011;56075;51.264;7.150;2024-02-26T04:15:01;1.60;;;1.00;;
20832;SDS011;56075;51.264;7.150;2024-02-26T04:17:32;2.70;;;1.13;;
20832;SDS011;56075;51.264;7.150;2024-02-26T04:20:04;3.97;;;1.40;;
20832;SDS011;56075;51.264;7.150;2024-02-26T04:22:40;2.13;;;1.30;;
20832;SDS011;56075;51.264;7.150;2024-02-26T04:25:11;3.53;;;1.40;;
20832;SDS011;56075;51.264;7.150;2024-02-26T04:27:43;3.67;;;1.40;;
20832;SDS011;56075;51.264;7.150;2024-02-26T04:30:14;4.13;;;1.37;;
20832;SDS011;56075;51.264;7.150;2024-02-26T04:32:46;2.30;;;1.30;;
20832;SDS011;56075;51.264;7.150;2024-02-26T04:35:17;3.57;;;1.43;;
20832;SDS011;56075;51.264;7.150;2024-02-26T04:37:48;3.80;;;1.70;;
20832;SDS011;56075;51.264;7.150;2024-02-26T04:40:20;3.47;;;1.37;;
20832;SDS011;56075;51.264;7.150;2024-02-26T04:42:51;4.73;;;1.60;;
20832;SDS011;56075;51.264;7.150;2024-02-26T04:45:22;2.87;;;1.60;;
20832;SDS011;56075;51.264;7.150;2024-02-26T04:47:53;3.40;;;1.70;;
20832;SDS011;56075;51.264;7.150;2024-02-26T04:50:25;7.93;;;2.10;;
20832;SDS011;56075;51.264;7.150;2024-02-26T04:52:57;6.17;;;1.77;;
20832;SDS011;56075;51.264;7.150;2024-02-26T04:55:28;7.50;;;1.80;;
20832;SDS011;56075;51.264;7.150;2024-02-26T04:57:59;3.70;;;1.87;;
20832;SDS011;56075;51.264;7.150;2024-02-26T05:00:31;3.37;;;1.70;;
20832;SDS011;56075;51.264;7.150;2024-02-26T05:03:03;3.43;;;1.97;;
20832;SDS011;56075;51.264;7.150;2024-02-26T05:05:34;4.30;;;2.20;;
20832;SDS011;56075;51.264;7.150;2024-02-26T05:08:06;6.30;;;2.87;;
20832;SDS011;56075;51.264;7.150;2024-02-26T05:10:38;2.47;;;1.70;;
20832;SDS011;56075;51.264;7.150;2024-02-26T05:13:13;4.20;;;1.80;;
20832;SDS011;56075;51.264;7.150;2024-02-26T05:15:46;4.10;;;2.10;;
20832;SDS011;56075;51.264;7.150;2024-02-26T05:18:19;4.27;;;1.63;;
20832;SDS011;56075;51.264;7.150;2024-02-26T05:20:50;4.83;;;1.80;;
20832;SDS011;56075;51.264;7.150;2024-02-26T05:23:22;3.60;;;1.70;;
20832;SDS011;56075;51.264;7.150;2024-02-26T05:25:53;6.53;;;1.70;;
20832;SDS011;56075;51.264;7.150;2024-02-26T05:28:25;3.70;;;1.60;;
20832;SDS011;56075;51.264;7.150;2024-02-26T05:30:56;5.60;;;1.80;;
20832;SDS011;56075;51.264;7.150;2024-02-26T05:33:27;6.30;;;1.70;;
20832;SDS011;56075;51.264;7.150;2024-02-26T05:35:59;3.73;;;2.13;;
20832;SDS011;56075;51.264;7.150;2024-02-26T05:38:34;4.10;;;2.00;;
20832;SDS011;56075;51.264;7.150;2024-02-26T05:41:06;5.23;;;2.33;;
20832;SDS011;56075;51.264;7.150;2024-02-26T05:43:38;3.43;;;2.00;;
20832;SDS011;56075;51.264;7.150;2024-02-26T05:46:10;5.53;;;1.90;;
20832;SDS011;56075;51.264;7.150;2024-02-26T05:48:41;4.70;;;1.90;;
20832;SDS011;56075;51.264;7.150;2024-02-26T05:51:13;6.50;;;2.23;;
20832;SDS011;56075;51.264;7.150;2024-02-26T05:53:44;6.10;;;2.10;;
20832;SDS011;56075;51.264;7.150;2024-02-26T05:56:17;6.33;;;1.90;;
20832;SDS011;56075;51.264;7.150;2024-02-26T05:58:48;5.00;;;1.93;;
20832;SDS011;56075;51.264;7.150;2024-02-26T06:01:20;3.30;;;1.77;;
20832;SDS011;56075;51.264;7.150;2024-02-26T06:03:52;5.10;;;1.87;;
20832;SDS011;56075;51.264;7.150;2024-02-26T06:06:23;4.73;;;2.30;;
20832;SDS011;56075;51.264;7.150;2024-02-26T06:08:54;3.87;;;1.90;;
20832;SDS011;56075;51.264;7.150;2024-02-26T06:11:26;6.23;;;2.43;;
20832;SDS011;56075;51.264;7.150;2024-02-26T06:13:57;4.40;;;2.20;;
20832;SDS011;56075;51.264;7.150;2024-02-26T06:16:29;4.93;;;2.40;;
20832;SDS011;56075;51.264;7.150;2024-02-26T06:19:00;3.87;;;2.20;;
20832;SDS011;56075;51.264;7.150;2024-02-26T06:21:32;6.77;;;2.30;;
20832;SDS011;56075;51.264;7.150;2024-02-26T06:24:04;4.50;;;2.40;;
20832;SDS011;56075;51.264;7.150;2024-02-26T06:26:35;4.57;;;2.15;;
20832;SDS011;56075;51.264;7.150;2024-02-26T06:29:07;7.80;;;3.03;;
20832;SDS011;56075;51.264;7.150;2024-02-26T06:31:38;5.07;;;2.40;;
20832;SDS011;56075;51.264;7.150;2024-02-26T06:34:10;6.30;;;2.80;;
20832;SDS011;56075;51.264;7.150;2024-02-26T06:36:42;6.47;;;2.60;;
20832;SDS011;56075;51.264;7.150;2024-02-26T06:39:13;4.07;;;2.23;;
20832;SDS011;56075;51.264;7.150;2024-02-26T06:41:45;6.17;;;2.70;;
20832;SDS011;56075;51.264;7.150;2024-02-26T06:44:17;5.83;;;2.90;;
20832;SDS011;56075;51.264;7.150;2024-02-26T06:46:48;5.63;;;2.93;;
20832;SDS011;56075;51.264;7.150;2024-02-26T06:49:20;5.77;;;2.77;;
20832;SDS011;56075;51.264;7.150;2024-02-26T06:51:52;5.10;;;2.50;;
20832;SDS011;56075;51.264;7.150;2024-02-26T06:54:23;3.70;;;2.20;;
20832;SDS011;56075;51.264;7.150;2024-02-26T06:56:55;4.57;;;2.60;;
20832;SDS011;56075;51.264;7.150;2024-02-26T06:59:26;6.87;;;2.77;;
20832;SDS011;56075;51.264;7.150;2024-02-26T07:01:57;6.00;;;2.80;;
20832;SDS011;56075;51.264;7.150;2024-02-26T07:04:28;6.83;;;3.07;;
20832;SDS011;56075;51.264;7.150;2024-02-26T07:07:02;5.00;;;2.73;;
20832;SDS011;56075;51.264;7.150;2024-02-26T07:09:33;7.47;;;3.50;;
20832;SDS011;56075;51.264;7.150;2024-02-26T07:12:05;4.90;;;2.90;;
20832;SDS011;56075;51.264;7.150;2024-02-26T07:14:36;6.00;;;3.00;;
20832;SDS011;56075;51.264;7.150;2024-02-26T07:17:08;6.47;;;3.27;;
20832;SDS011;56075;51.264;7.150;2024-02-26T07:19:39;5.10;;;2.77;;
20832;SDS011;56075;51.264;7.150;2024-02-26T07:22:10;5.10;;;2.83;;
20832;SDS011;56075;51.264;7.150;2024-02-26T07:24:42;6.73;;;3.20;;
20832;SDS011;56075;51.264;7.150;2024-02-26T07:27:13;6.77;;;3.33;;
20832;SDS011;56075;51.264;7.150;2024-02-26T07:29:44;7.23;;;3.20;;
20832;SDS011;56075;51.264;7.150;2024-02-26T07:32:16;5.13;;;3.03;;
20832;SDS011;56075;51.264;7.150;2024-02-26T07:34:47;5.73;;;3.33;;
20832;SDS011;56075;51.264;7.150;2024-02-26T07:37:18;7.90;;;3.50;;
20832;SDS011;56075;51.264;7.150;2024-02-26T07:39:49;6.57;;;3.10;;
20832;SDS011;56075;51.264;7.150;2024-02-26T07:42:20;7.00;;;3.17;;
20832;SDS011;56075;51.264;7.150;2024-02-26T07:44:51;6.30;;;3.40;;
20832;SDS011;56075;51.264;7.150;2024-02-26T07:47:23;7.27;;;3.30;;
20832;SDS011;56075;51.264;7.150;2024-02-26T07:49:54;7.93;;;3.60;;
20832;SDS011;56075;51.264;7.150;2024-02-26T07:52:25;5.97;;;3.10;;
20832;SDS011;56075;51.264;7.150;2024-02-26T07:54:57;7.93;;;3.07;;
20832;SDS011;56075;51.264;7.150;2024-02-26T07:57:28;5.20;;;3.03;;
20832;SDS011;56075;51.264;7.150;2024-02-26T07:59:59;6.70;;;3.70;;
20832;SDS011;56075;51.264;7.150;2024-02-26T08:02:31;5.73;;;3.50;;
20832;SDS011;56075;51.264;7.150;2024-02-26T08:05:02;8.40;;;3.60;;
20832;SDS011;56075;51.264;7.150;2024-02-26T08:07:34;5.93;;;3.27;;
20832;SDS011;56075;51.264;7.150;2024-02-26T08:10:05;6.10;;;3.47;;
20832;SDS011;56075;51.264;7.150;2024-02-26T08:12:37;8.10;;;3.80;;
20832;SDS011;56075;51.264;7.150;2024-02-26T08:15:08;8.10;;;3.70;;
20832;SDS011;56075;51.264;7.150;2024-02-26T08:17:40;6.00;;;3.43;;
20832;SDS011;56075;51.264;7.150;2024-02-26T08:20:11;8.77;;;4.13;;
20832;SDS011;56075;51.264;7.150;2024-02-26T08:22:43;8.20;;;3.93;;
20832;SDS011;56075;51.264;7.150;2024-02-26T08:25:14;6.27;;;3.50;;
20832;SDS011;56075;51.264;7.150;2024-02-26T08:27:46;8.17;;;3.43;;
20832;SDS011;56075;51.264;7.150;2024-02-26T08:30:18;7.37;;;2.97;;
20832;SDS011;56075;51.264;7.150;2024-02-26T08:32:49;5.30;;;2.93;;
20832;SDS011;56075;51.264;7.150;2024-02-26T08:35:20;8.87;;;2.60;;
20832;SDS011;56075;51.264;7.150;2024-02-26T08:37:51;6.03;;;3.00;;
20832;SDS011;56075;51.264;7.150;2024-02-26T08:40:22;5.93;;;2.90;;
20832;SDS011;56075;51.264;7.150;2024-02-26T08:42:54;6.90;;;2.60;;
20832;SDS011;56075;51.264;7.150;2024-02-26T08:45:26;5.73;;;2.87;;
20832;SDS011;56075;51.264;7.150;2024-02-26T08:47:57;11.13;;;3.10;;
20832;SDS011;56075;51.264;7.150;2024-02-26T08:50:29;9.27;;;3.30;;
20832;SDS011;56075;51.264;7.150;2024-02-26T08:53:01;7.70;;;3.10;;
20832;SDS011;56075;51.264;7.150;2024-02-26T08:55:34;8.03;;;3.47;;
20832;SDS011;56075;51.264;7.150;2024-02-26T08:58:05;10.63;;;6.20;;
20832;SDS011;56075;51.264;7.150;2024-02-26T09:00:36;8.23;;;4.80;;
20832;SDS011;56075;51.264;7.150;2024-02-26T09:03:07;7.70;;;3.97;;
20832;SDS011;56075;51.264;7.150;2024-02-26T09:05:38;8.97;;;3.83;;
20832;SDS011;56075;51.264;7.150;2024-02-26T09:08:09;7.47;;;4.13;;
20832;SDS011;56075;51.264;7.150;2024-02-26T09:10:41;7.17;;;4.50;;
20832;SDS011;56075;51.264;7.150;2024-02-26T09:13:12;10.63;;;3.80;;
20832;SDS011;56075;51.264;7.150;2024-02-26T09:15:44;6.33;;;3.43;;
20832;SDS011;56075;51.264;7.150;2024-02-26T09:18:15;8.00;;;3.70;;
20832;SDS011;56075;51.264;7.150;2024-02-26T09:20:46;6.63;;;3.17;;
20832;SDS011;56075;51.264;7.150;2024-02-26T09:23:17;5.63;;;3.23;;
20832;SDS011;56075;51.264;7.150;2024-02-26T09:25:48;6.23;;;2.93;;
20832;SDS011;56075;51.264;7.150;2024-02-26T09:28:19;7.37;;;2.63;;
20832;SDS011;56075;51.264;7.150;2024-02-26T09:30:51;6.13;;;2.93;;
20832;SDS011;56075;51.264;7.150;2024-02-26T09:33:22;5.73;;;3.17;;
20832;SDS011;56075;51.264;7.150;2024-02-26T09:35:53;10.10;;;3.47;;
20832;SDS011;56075;51.264;7.150;2024-02-26T09:38:24;10.60;;;3.60;;
20832;SDS011;56075;51.264;7.150;2024-02-26T09:40:58;6.17;;;3.37;;
20832;SDS011;56075;51.264;7.150;2024-02-26T09:43:33;11.63;;;3.90;;
20832;SDS011;56075;51.264;7.150;2024-02-26T09:46:06;8.27;;;3.70;;
20832;SDS011;56075;51.264;7.150;2024-02-26T09:48:38;7.83;;;3.60;;
20832;SDS011;56075;51.264;7.150;2024-02-26T09:51:11;9.20;;;3.47;;
20832;SDS011;56075;51.264;7.150;2024-02-26T09:53:43;8.50;;;3.93;;
20832;SDS011;56075;51.264;7.150;2024-02-26T09:56:15;8.50;;;4.30;;
20832;SDS011;56075;51.264;7.150;2024-02-26T09:58:47;8.43;;;3.70;;
20832;SDS011;56075;51.264;7.150;2024-02-26T10:01:23;10.27;;;4.10;;
20832;SDS011;56075;51.264;7.150;2024-02-26T10:03:56;10.23;;;3.70;;
20832;SDS011;56075;51.264;7.150;2024-02-26T10:06:28;7.90;;;3.60;;
20832;SDS011;56075;51.264;7.150;2024-02-26T10:08:59;7.77;;;3.97;;
20832;SDS011;56075;51.264;7.150;2024-02-26T10:11:30;9.70;;;3.67;;
20832;SDS011;56075;51.264;7.150;2024-02-26T10:14:03;7.67;;;4.50;;
20832;SDS011;56075;51.264;7.150;2024-02-26T10:16:34;12.00;;;4.47;;
20832;SDS011;56075;51.264;7.150;2024-02-26T10:19:05;8.60;;;4.33;;
20832;SDS011;56075;51.264;7.150;2024-02-26T10:21:37;7.33;;;4.03;;
20832;SDS011;56075;51.264;7.150;2024-02-26T10:24:14;7.47;;;3.67;;
20832;SDS011;56075;51.264;7.150;2024-02-26T10:26:46;7.77;;;3.53;;
20832;SDS011;56075;51.264;7.150;2024-02-26T10:29:18;8.90;;;3.87;;
20832;SDS011;56075;51.264;7.150;2024-02-26T10:31:52;9.67;;;4.13;;
20832;SDS011;56075;51.264;7.150;2024-02-26T10:34:24;7.40;;;3.77;;
20832;SDS011;56075;51.264;7.150;2024-02-26T10:36:56;9.27;;;4.10;;
20832;SDS011;56075;51.264;7.150;2024-02-26T10:39:27;9.63;;;3.80;;
20832;SDS011;56075;51.264;7.150;2024-02-26T10:41:59;9.50;;;4.23;;
20832;SDS011;56075;51.264;7.150;2024-02-26T10:44:35;7.97;;;4.30;;
20832;SDS011;56075;51.264;7.150;2024-02-26T10:47:07;8.03;;;3.73;;
20832;SDS011;56075;51.264;7.150;2024-02-26T10:49:38;6.83;;;3.80;;
20832;SDS011;56075;51.264;7.150;2024-02-26T10:52:15;8.33;;;3.70;;
20832;SDS011;56075;51.264;7.150;2024-02-26T10:54:49;8.40;;;3.93;;
20832;SDS011;56075;51.264;7.150;2024-02-26T10:57:24;7.53;;;3.90;;
20832;SDS011;56075;51.264;7.150;2024-02-26T10:59:56;7.80;;;4.33;;
20832;SDS011;56075;51.264;7.150;2024-02-26T11:02:28;8.30;;;4.60;;
20832;SDS011;56075;51.264;7.150;2024-02-26T11:05:01;8.40;;;4.53;;
20832;SDS011;56075;51.264;7.150;2024-02-26T11:07:34;7.87;;;4.40;;
20832;SDS011;56075;51.264;7.150;2024-02-26T11:10:09;10.33;;;4.40;;
20832;SDS011;56075;51.264;7.150;2024-02-26T11:12:42;7.43;;;4.30;;
20832;SDS011;56075;51.264;7.150;2024-02-26T11:15:14;8.00;;;3.83;;
20832;SDS011;56075;51.264;7.150;2024-02-26T11:17:47;6.63;;;4.10;;
20832;SDS011;56075;51.264;7.150;2024-02-26T11:20:19;7.53;;;3.80;;
20832;SDS011;56075;51.264;7.150;2024-02-26T11:22:50;9.00;;;3.80;;
20832;SDS011;56075;51.264;7.150;2024-02-26T11:25:22;7.77;;;3.93;;
20832;SDS011;56075;51.264;7.150;2024-02-26T11:27:54;10.47;;;4.23;;
20832;SDS011;56075;51.264;7.150;2024-02-26T11:30:30;10.83;;;4.07;;
20832;SDS011;56075;51.264;7.150;2024-02-26T11:33:04;9.23;;;3.80;;
20832;SDS011;56075;51.264;7.150;2024-02-26T11:35:37;8.73;;;4.70;;
20832;SDS011;56075;51.264;7.150;2024-02-26T11:38:09;8.17;;;3.60;;
20832;SDS011;56075;51.264;7.150;2024-02-26T11:40:50;7.87;;;4.00;;
20832;SDS011;56075;51.264;7.150;2024-02-26T11:46:26;8.10;;;4.03;;
20832;SDS011;56075;51.264;7.150;2024-02-26T11:49:02;8.03;;;4.30;;
20832;SDS011;56075;51.264;7.150;2024-02-26T11:51:54;9.03;;;4.30;;
20832;SDS011;56075;51.264;7.150;2024-02-26T11:57:23;8.73;;;4.40;;
20832;SDS011;56075;51.264;7.150;2024-02-26T12:02:45;9.23;;;4.70;;
20832;SDS011;56075;51.264;7.150;2024-02-26T12:05:19;8.63;;;4.23;;
20832;SDS011;56075;51.264;7.150;2024-02-26T12:08:08;10.80;;;4.97;;
20832;SDS011;56075;51.264;7.150;2024-02-26T12:10:39;11.20;;;5.77;;
20832;SDS011;56075;51.264;7.150;2024-02-26T12:13:11;11.37;;;5.17;;
20832;SDS011;56075;51.264;7.150;2024-02-26T12:15:45;10.77;;;4.87;;
20832;SDS011;56075;51.264;7.150;2024-02-26T12:18:25;15.27;;;5.67;;
20832;SDS011;56075;51.264;7.150;2024-02-26T12:21:00;11.53;;;5.83;;
20832;SDS011;56075;51.264;7.150;2024-02-26T12:23:32;10.10;;;5.70;;
20832;SDS011;56075;51.264;7.150;2024-02-26T12:26:03;11.13;;;5.53;;
20832;SDS011;56075;51.264;7.150;2024-02-26T12:28:35;12.67;;;5.97;;
20832;SDS011;56075;51.264;7.150;2024-02-26T12:31:06;11.60;;;5.97;;
20832;SDS011;56075;51.264;7.150;2024-02-26T12:33:37;19.30;;;7.13;;
20832;SDS011;56075;51.264;7.150;2024-02-26T12:36:09;12.93;;;6.13;;
20832;SDS011;56075;51.264;7.150;2024-02-26T12:38:40;15.13;;;6.43;;
20832;SDS011;56075;51.264;7.150;2024-02-26T12:41:12;15.80;;;7.00;;
20832;SDS011;56075;51.264;7.150;2024-02-26T12:43:43;15.23;;;7.00;;
20832;SDS011;56075;51.264;7.150;2024-02-26T12:46:15;15.73;;;7.73;;
20832;SDS011;56075;51.264;7.150;2024-02-26T12:48:46;17.67;;;8.77;;
20832;SDS011;56075;51.264;7.150;2024-02-26T12:51:17;18.37;;;7.50;;
20832;SDS011;56075;51.264;7.150;2024-02-26T12:53:49;18.97;;;8.20;;
20832;SDS011;56075;51.264;7.150;2024-02-26T12:56:22;21.23;;;9.30;;
20832;SDS011;56075;51.264;7.150;2024-02-26T12:58:54;16.73;;;8.27;;
20832;SDS011;56075;51.264;7.150;2024-02-26T13:01:26;13.43;;;6.97;;
20832;SDS011;56075;51.264;7.150;2024-02-26T13:03:58;14.17;;;6.90;;
20832;SDS011;56075;51.264;7.150;2024-02-26T13:06:31;15.60;;;7.60;;
20832;SDS011;56075;51.264;7.150;2024-02-26T13:09:04;19.57;;;8.03;;
20832;SDS011;56075;51.264;7.150;2024-02-26T13:11:36;14.67;;;7.07;;
20832;SDS011;56075;51.264;7.150;2024-02-26T13:14:20;14.17;;;6.53;;
20832;SDS011;56075;51.264;7.150;2024-02-26T13:16:55;19.13;;;6.00;;
20832;SDS011;56075;51.264;7.150;2024-02-26T13:19:27;11.73;;;5.20;;
20832;SDS011;56075;51.264;7.150;2024-02-26T13:22:07;9.93;;;5.10;;
20832;SDS011;56075;51.264;7.150;2024-02-26T13:24:38;16.00;;;5.90;;
20832;SDS011;56075;51.264;7.150;2024-02-26T13:27:09;12.00;;;4.97;;
20832;SDS011;56075;51.264;7.150;2024-02-26T13:29:40;9.80;;;4.60;;
20832;SDS011;56075;51.264;7.150;2024-02-26T13:32:11;11.07;;;4.87;;
20832;SDS011;56075;51.264;7.150;2024-02-26T13:34:43;8.37;;;4.57;;
20832;SDS011;56075;51.264;7.150;2024-02-26T13:37:14;10.30;;;4.43;;
20832;SDS011;56075;51.264;7.150;2024-02-26T13:39:45;8.32;;;4.43;;
20832;SDS011;56075;51.264;7.150;2024-02-26T13:42:16;9.43;;;4.37;;
20832;SDS011;56075;51.264;7.150;2024-02-26T13:44:48;9.85;;;4.78;;
20832;SDS011;56075;51.264;7.150;2024-02-26T13:47:19;11.38;;;5.18;;
20832;SDS011;56075;51.264;7.150;2024-02-26T13:49:50;10.27;;;4.15;;
20832;SDS011;56075;51.264;7.150;2024-02-26T13:52:22;9.35;;;4.82;;
20832;SDS011;56075;51.264;7.150;2024-02-26T13:54:53;10.33;;;4.47;;
20832;SDS011;56075;51.264;7.150;2024-02-26T13:57:24;10.38;;;5.35;;
20832;SDS011;56075;51.264;7.150;2024-02-26T13:59:56;10.98;;;5.15;;
20832;SDS011;56075;51.264;7.150;2024-02-26T14:02:27;9.75;;;5.40;;
20832;SDS011;56075;51.264;7.150;2024-02-26T14:04:58;11.52;;;5.45;;
20832;SDS011;56075;51.264;7.150;2024-02-26T14:07:30;14.00;;;5.72;;
20832;SDS011;56075;51.264;7.150;2024-02-26T14:10:03;12.23;;;5.70;;
20832;SDS011;56075;51.264;7.150;2024-02-26T14:12:34;13.73;;;6.20;;
20832;SDS011;56075;51.264;7.150;2024-02-26T14:15:06;10.77;;;5.93;;
20832;SDS011;56075;51.264;7.150;2024-02-26T14:17:38;12.25;;;5.35;;
20832;SDS011;56075;51.264;7.150;2024-02-26T14:20:09;10.38;;;5.03;;
20832;SDS011;56075;51.264;7.150;2024-02-26T14:22:40;9.48;;;5.28;;
20832;SDS011;56075;51.264;7.150;2024-02-26T14:25:11;8.57;;;5.35;;
20832;SDS011;56075;51.264;7.150;2024-02-26T14:27:43;11.02;;;5.07;;
20832;SDS011;56075;51.264;7.150;2024-02-26T14:30:14;7.97;;;5.10;;
20832;SDS011;56075;51.264;7.150;2024-02-26T14:32:45;11.13;;;5.30;;
20832;SDS011;56075;51.264;7.150;2024-02-26T14:35:16;9.95;;;5.13;;
20832;SDS011;56075;51.264;7.150;2024-02-26T14:37:48;10.15;;;5.00;;
20832;SDS011;56075;51.264;7.150;2024-02-26T14:40:20;9.93;;;4.88;;
20832;SDS011;56075;51.264;7.150;2024-02-26T14:42:51;9.80;;;5.23;;
20832;SDS011;56075;51.264;7.150;2024-02-26T14:45:23;9.15;;;4.75;;
20832;SDS011;56075;51.264;7.150;2024-02-26T14:47:54;7.87;;;4.63;;
20832;SDS011;56075;51.264;7.150;2024-02-26T14:50:25;10.80;;;5.03;;
20832;SDS011;56075;51.264;7.150;2024-02-26T14:52:56;11.27;;;4.93;;
20832;SDS011;56075;51.264;7.150;2024-02-26T14:55:28;12.50;;;5.22;;
20832;SDS011;56075;51.264;7.150;2024-02-26T15:19:56;10.52;;;5.57;;
20832;SDS011;56075;51.264;7.150;2024-02-26T15:22:27;10.43;;;5.47;;
20832;SDS011;56075;51.264;7.150;2024-02-26T15:24:59;13.23;;;5.78;;
20832;SDS011;56075;51.264;7.150;2024-02-26T15:27:30;11.10;;;5.47;;
20832;SDS011;56075;51.264;7.150;2024-02-26T15:30:01;11.88;;;5.75;;
20832;SDS011;56075;51.264;7.150;2024-02-26T15:32:33;14.63;;;5.85;;
20832;SDS011;56075;51.264;7.150;2024-02-26T15:35:04;14.32;;;6.15;;
20832;SDS011;56075;51.264;7.150;2024-02-26T15:37:37;12.00;;;5.38;;
20832;SDS011;56075;51.264;7.150;2024-02-26T15:40:08;11.30;;;5.45;;
20832;SDS011;56075;51.264;7.150;2024-02-26T15:42:41;10.00;;;5.10;;
20832;SDS011;56075;51.264;7.150;2024-02-26T15:45:12;12.67;;;5.10;;